sensor_id;sensor_type;location;lat;lon;timestamp;pressure;altitude;pressure_sealevel;temperature;humidity
15932;BME280;8065;49.520;11.284;2022-08-06T00:01:06;97914.06;;;21.27;93.34
15932;BME280;8065;49.520;11.284;2022-08-06T00:03:33;97907.22;;;21.48;92.02
15932;BME280;8065;49.520;11.284;2022-08-06T00:05:59;97901.78;;;21.41;91.36
15932;BME280;8065;49.520;11.284;2022-08-06T00:08:26;97911.00;;;21.33;90.10
15932;BME280;8065;49.520;11.284;2022-08-06T00:10:52;97921.06;;;21.36;89.42
15932;BME280;8065;49.520;11.284;2022-08-06T00:13:19;97931.09;;;21.35;89.57
15932;BME280;8065;49.520;11.284;2022-08-06T00:15:47;97940.78;;;21.40;88.20
15932;BME280;8065;49.520;11.284;2022-08-06T00:20:40;97966.72;;;21.48;85.58
15932;BME280;8065;49.520;11.284;2022-08-06T00:23:07;97960.16;;;21.49;85.86
15932;BME280;8065;49.520;11.284;2022-08-06T00:25:33;97945.44;;;20.95;89.20
15932;BME280;8065;49.520;11.284;2022-08-06T00:28:00;97922.13;;;20.69;90.88
15932;BME280;8065;49.520;11.284;2022-08-06T00:30:26;97936.06;;;20.75;92.08
15932;BME280;8065;49.520;11.284;2022-08-06T00:32:54;97955.50;;;20.98;90.06
15932;BME280;8065;49.520;11.284;2022-08-06T00:35:22;97967.97;;;21.10;88.53
15932;BME280;8065;49.520;11.284;2022-08-06T00:37:49;97967.25;;;21.20;86.46
15932;BME280;8065;49.520;11.284;2022-08-06T00:40:18;97966.66;;;21.41;84.32
15932;BME280;8065;49.520;11.284;2022-08-06T00:42:45;97964.63;;;21.23;83.40
15932;BME280;8065;49.520;11.284;2022-08-06T00:45:11;97963.91;;;20.86;88.21
15932;BME280;8065;49.520;11.284;2022-08-06T00:47:38;97968.22;;;20.94;86.45
15932;BME280;8065;49.520;11.284;2022-08-06T00:50:06;97970.78;;;20.76;87.07
15932;BME280;8065;49.520;11.284;2022-08-06T00:52:33;97960.44;;;20.41;88.14
15932;BME280;8065;49.520;11.284;2022-08-06T00:55:00;97972.38;;;20.10;89.31
15932;BME280;8065;49.520;11.284;2022-08-06T00:57:26;97982.31;;;20.03;89.70
15932;BME280;8065;49.520;11.284;2022-08-06T00:59:53;97987.03;;;20.09;89.18
15932;BME280;8065;49.520;11.284;2022-08-06T01:02:19;97974.59;;;20.01;89.42
15932;BME280;8065;49.520;11.284;2022-08-06T01:04:46;97970.16;;;19.82;87.04
15932;BME280;8065;49.520;11.284;2022-08-06T01:07:14;97980.47;;;19.77;88.53
15932;BME280;8065;49.520;11.284;2022-08-06T01:09:40;97990.50;;;19.76;89.21
15932;BME280;8065;49.520;11.284;2022-08-06T01:12:07;97986.88;;;19.65;91.52
15932;BME280;8065;49.520;11.284;2022-08-06T01:14:34;97983.91;;;19.74;91.09
15932;BME280;8065;49.520;11.284;2022-08-06T01:17:02;97974.22;;;19.69;91.24
15932;BME280;8065;49.520;11.284;2022-08-06T01:19:46;97967.66;;;19.44;94.18
15932;BME280;8065;49.520;11.284;2022-08-06T01:22:30;97979.06;;;19.33;93.33
15932;BME280;8065;49.520;11.284;2022-08-06T01:25:10;97984.13;;;19.61;91.93
15932;BME280;8065;49.520;11.284;2022-08-06T01:27:51;97998.06;;;19.67;91.09
15932;BME280;8065;49.520;11.284;2022-08-06T01:30:24;97992.41;;;19.49;90.17
15932;BME280;8065;49.520;11.284;2022-08-06T01:32:57;97994.13;;;19.61;89.55
15932;BME280;8065;49.520;11.284;2022-08-06T01:35:29;97990.91;;;19.52;89.71
15932;BME280;8065;49.520;11.284;2022-08-06T01:37:58;97988.34;;;19.36;90.98
15932;BME280;8065;49.520;11.284;2022-08-06T01:40:29;97999.06;;;19.32;91.57
15932;BME280;8065;49.520;11.284;2022-08-06T01:43:00;97992.75;;;19.21;92.06
15932;BME280;8065;49.520;11.284;2022-08-06T01:45:30;97989.69;;;19.23;92.00
15932;BME280;8065;49.520;11.284;2022-08-06T01:48:01;97997.97;;;19.11;91.69
15932;BME280;8065;49.520;11.284;2022-08-06T01:50:30;97998.81;;;19.15;91.62
15932;BME280;8065;49.520;11.284;2022-08-06T01:53:00;98013.97;;;19.00;93.13
15932;BME280;8065;49.520;11.284;2022-08-06T01:55:29;98019.16;;;19.12;91.64
15932;BME280;8065;49.520;11.284;2022-08-06T01:58:01;98017.44;;;19.01;91.78
15932;BME280;8065;49.520;11.284;2022-08-06T02:00:29;98020.44;;;18.73;93.04
15932;BME280;8065;49.520;11.284;2022-08-06T02:03:00;98022.94;;;18.85;92.81
15932;BME280;8065;49.520;11.284;2022-08-06T02:05:28;98025.94;;;18.80;93.69
15932;BME280;8065;49.520;11.284;2022-08-06T02:07:56;98021.66;;;18.98;91.18
15932;BME280;8065;49.520;11.284;2022-08-06T02:10:25;98025.53;;;19.01;90.64
15932;BME280;8065;49.520;11.284;2022-08-06T02:12:55;98017.69;;;18.92;92.43
15932;BME280;8065;49.520;11.284;2022-08-06T02:15:26;98015.53;;;19.01;91.54
15932;BME280;8065;49.520;11.284;2022-08-06T02:17:56;98022.69;;;19.16;90.18
15932;BME280;8065;49.520;11.284;2022-08-06T02:20:25;98019.16;;;19.12;90.76
15932;BME280;8065;49.520;11.284;2022-08-06T02:22:53;98021.78;;;19.09;90.36
15932;BME280;8065;49.520;11.284;2022-08-06T02:25:23;98022.78;;;18.97;91.83
15932;BME280;8065;49.520;11.284;2022-08-06T02:27:52;98021.66;;;18.98;91.24
15932;BME280;8065;49.520;11.284;2022-08-06T02:30:19;98023.13;;;18.95;90.65
15932;BME280;8065;49.520;11.284;2022-08-06T02:32:47;98022.88;;;18.81;91.96
15932;BME280;8065;49.520;11.284;2022-08-06T02:35:14;98029.06;;;18.82;92.41
15932;BME280;8065;49.520;11.284;2022-08-06T02:37:45;98026.06;;;18.87;90.99
15932;BME280;8065;49.520;11.284;2022-08-06T02:40:17;98027.16;;;19.05;90.59
15932;BME280;8065;49.520;11.284;2022-08-06T02:42:49;98033.41;;;19.13;89.38
15932;BME280;8065;49.520;11.284;2022-08-06T02:45:21;98035.03;;;19.17;88.96
15932;BME280;8065;49.520;11.284;2022-08-06T02:47:53;98046.38;;;19.04;89.76
15932;BME280;8065;49.520;11.284;2022-08-06T02:50:26;98043.28;;;18.82;91.22
15932;BME280;8065;49.520;11.284;2022-08-06T02:52:58;98039.75;;;18.78;91.71
15932;BME280;8065;49.520;11.284;2022-08-06T02:55:29;98046.78;;;18.83;92.06
15932;BME280;8065;49.520;11.284;2022-08-06T02:58:04;98042.47;;;18.78;92.48
15932;BME280;8065;49.520;11.284;2022-08-06T03:00:33;98051.44;;;18.86;92.26
15932;BME280;8065;49.520;11.284;2022-08-06T03:03:05;98055.44;;;18.73;94.10
15932;BME280;8065;49.520;11.284;2022-08-06T03:05:33;98052.44;;;18.58;94.40
15932;BME280;8065;49.520;11.284;2022-08-06T03:08:03;98060.09;;;18.37;96.56
15932;BME280;8065;49.520;11.284;2022-08-06T03:10:33;98060.53;;;18.39;96.05
15932;BME280;8065;49.520;11.284;2022-08-06T03:13:02;98061.38;;;18.43;95.28
15932;BME280;8065;49.520;11.284;2022-08-06T03:15:31;98061.75;;;18.61;93.72
15932;BME280;8065;49.520;11.284;2022-08-06T03:17:58;98064.50;;;18.45;93.78
15932;BME280;8065;49.520;11.284;2022-08-06T03:20:28;98062.50;;;18.23;96.20
15932;BME280;8065;49.520;11.284;2022-08-06T03:22:57;98076.97;;;18.15;96.31
15932;BME280;8065;49.520;11.284;2022-08-06T03:25:26;98067.03;;;17.99;97.50
15932;BME280;8065;49.520;11.284;2022-08-06T03:27:54;98062.75;;;17.79;98.50
15932;BME280;8065;49.520;11.284;2022-08-06T03:30:22;98070.09;;;17.82;98.66
15932;BME280;8065;49.520;11.284;2022-08-06T03:32:49;98073.81;;;17.93;97.83
15932;BME280;8065;49.520;11.284;2022-08-06T03:35:16;98071.13;;;17.93;97.76
15932;BME280;8065;49.520;11.284;2022-08-06T03:37:49;98076.28;;;17.67;98.51
15932;BME280;8065;49.520;11.284;2022-08-06T03:40:18;98072.47;;;17.52;99.30
15932;BME280;8065;49.520;11.284;2022-08-06T03:42:46;98066.19;;;17.64;99.09
15932;BME280;8065;49.520;11.284;2022-08-06T03:45:13;98079.38;;;17.85;97.44
15932;BME280;8065;49.520;11.284;2022-08-06T03:47:42;98079.56;;;17.76;98.25
15932;BME280;8065;49.520;11.284;2022-08-06T03:50:11;98087.63;;;17.76;98.36
15932;BME280;8065;49.520;11.284;2022-08-06T03:52:41;98090.59;;;17.71;97.97
15932;BME280;8065;49.520;11.284;2022-08-06T03:55:24;98084.50;;;17.74;98.01
15932;BME280;8065;49.520;11.284;2022-08-06T03:57:55;98084.50;;;17.74;97.53
15932;BME280;8065;49.520;11.284;2022-08-06T04:00:24;98090.41;;;17.64;97.66
15932;BME280;8065;49.520;11.284;2022-08-06T04:02:53;98101.16;;;17.64;97.63
15932;BME280;8065;49.520;11.284;2022-08-06T04:05:21;98104.03;;;17.71;96.23
15932;BME280;8065;49.520;11.284;2022-08-06T04:07:50;98107.41;;;17.68;96.45
15932;BME280;8065;49.520;11.284;2022-08-06T04:10:19;98109.84;;;17.73;95.50
15932;BME280;8065;49.520;11.284;2022-08-06T04:12:47;98115.13;;;17.69;95.05
15932;BME280;8065;49.520;11.284;2022-08-06T04:15:14;98113.97;;;17.86;95.07
15932;BME280;8065;49.520;11.284;2022-08-06T04:17:42;98125.03;;;17.65;95.54
15932;BME280;8065;49.520;11.284;2022-08-06T04:20:11;98130.91;;;17.71;94.58
15932;BME280;8065;49.520;11.284;2022-08-06T04:22:40;98121.63;;;17.68;95.75
15932;BME280;8065;49.520;11.284;2022-08-06T04:25:07;98118.50;;;17.66;95.75
15932;BME280;8065;49.520;11.284;2022-08-06T04:27:38;98129.09;;;17.75;95.74
15932;BME280;8065;49.520;11.284;2022-08-06T04:30:06;98122.06;;;17.86;94.54
15932;BME280;8065;49.520;11.284;2022-08-06T04:32:33;98129.59;;;17.96;93.73
15932;BME280;8065;49.520;11.284;2022-08-06T04:35:04;98134.06;;;18.08;93.20
15932;BME280;8065;49.520;11.284;2022-08-06T04:37:32;98131.47;;;18.12;93.12
15932;BME280;8065;49.520;11.284;2022-08-06T04:39:59;98143.53;;;18.02;93.65
15932;BME280;8065;49.520;11.284;2022-08-06T04:42:27;98148.69;;;17.91;94.32
15932;BME280;8065;49.520;11.284;2022-08-06T04:44:55;98149.38;;;17.73;95.54
15932;BME280;8065;49.520;11.284;2022-08-06T04:47:23;98150.84;;;17.86;95.18
15932;BME280;8065;49.520;11.284;2022-08-06T04:49:50;98159.25;;;17.84;95.02
15932;BME280;8065;49.520;11.284;2022-08-06T04:52:21;98158.56;;;17.87;94.54
15932;BME280;8065;49.520;11.284;2022-08-06T04:54:47;98165.34;;;17.81;94.60
15932;BME280;8065;49.520;11.284;2022-08-06T04:57:14;98166.63;;;17.72;94.94
15932;BME280;8065;49.520;11.284;2022-08-06T04:59:41;98166.72;;;17.75;95.39
15932;BME280;8065;49.520;11.284;2022-08-06T05:02:09;98160.47;;;17.71;95.07
15932;BME280;8065;49.520;11.284;2022-08-06T05:04:36;98172.09;;;17.75;95.14
15932;BME280;8065;49.520;11.284;2022-08-06T05:07:08;98172.09;;;17.75;94.68
15932;BME280;8065;49.520;11.284;2022-08-06T05:09:36;98178.19;;;17.72;93.90
15932;BME280;8065;49.520;11.284;2022-08-06T05:12:05;98174.53;;;17.80;93.07
15932;BME280;8065;49.520;11.284;2022-08-06T05:14:37;98177.91;;;17.77;93.48
15932;BME280;8065;49.520;11.284;2022-08-06T05:17:06;98184.59;;;17.83;92.58
15932;BME280;8065;49.520;11.284;2022-08-06T05:19:38;98190.94;;;17.75;92.85
15932;BME280;8065;49.520;11.284;2022-08-06T05:22:08;98189.97;;;17.83;92.37
15932;BME280;8065;49.520;11.284;2022-08-06T05:24:37;98197.78;;;17.88;92.50
15932;BME280;8065;49.520;11.284;2022-08-06T05:27:03;98194.91;;;17.81;92.88
15932;BME280;8065;49.520;11.284;2022-08-06T05:29:30;98198.22;;;17.90;93.32
15932;BME280;8065;49.520;11.284;2022-08-06T05:31:58;98203.94;;;18.05;92.60
15932;BME280;8065;49.520;11.284;2022-08-06T05:34:25;98206.22;;;18.22;92.25
15932;BME280;8065;49.520;11.284;2022-08-06T05:36:53;98207.66;;;18.16;93.24
15932;BME280;8065;49.520;11.284;2022-08-06T05:39:20;98208.50;;;18.20;92.99
15932;BME280;8065;49.520;11.284;2022-08-06T05:41:48;98211.06;;;18.32;91.35
15932;BME280;8065;49.520;11.284;2022-08-06T05:44:15;98204.78;;;18.44;89.88
15932;BME280;8065;49.520;11.284;2022-08-06T05:46:45;98220.16;;;18.43;87.83
15932;BME280;8065;49.520;11.284;2022-08-06T05:49:21;98218.88;;;18.37;88.47
15932;BME280;8065;49.520;11.284;2022-08-06T05:51:53;98218.88;;;18.37;88.84
15932;BME280;8065;49.520;11.284;2022-08-06T05:54:28;98221.66;;;18.25;86.22
15932;BME280;8065;49.520;11.284;2022-08-06T05:57:00;98220.81;;;18.21;87.55
15932;BME280;8065;49.520;11.284;2022-08-06T05:59:32;98222.63;;;18.32;85.63
15932;BME280;8065;49.520;11.284;2022-08-06T06:02:01;98235.03;;;18.37;86.77
15932;BME280;8065;49.520;11.284;2022-08-06T06:04:29;98231.44;;;18.49;86.16
15932;BME280;8065;49.520;11.284;2022-08-06T06:07:00;98235.94;;;18.10;86.33
15932;BME280;8065;49.520;11.284;2022-08-06T06:09:28;98239.53;;;18.33;85.95
15932;BME280;8065;49.520;11.284;2022-08-06T06:11:56;98246.09;;;18.51;84.88
15932;BME280;8065;49.520;11.284;2022-08-06T06:14:34;98238.81;;;18.67;83.13
15932;BME280;8065;49.520;11.284;2022-08-06T06:20:08;98243.66;;;17.95;82.91
15932;BME280;8065;49.520;11.284;2022-08-06T06:22:46;98241.50;;;17.85;81.06
15932;BME280;8065;49.520;11.284;2022-08-06T06:25:18;98243.50;;;17.88;80.46
15932;BME280;8065;49.520;11.284;2022-08-06T06:27:51;98254.75;;;17.78;78.84
15932;BME280;8065;49.520;11.284;2022-08-06T06:30:22;98247.91;;;17.96;80.30
15932;BME280;8065;49.520;11.284;2022-08-06T06:32:55;98252.78;;;18.07;81.48
15932;BME280;8065;49.520;11.284;2022-08-06T06:35:32;98254.34;;;18.08;82.37
15932;BME280;8065;49.520;11.284;2022-08-06T06:38:14;98255.78;;;18.21;80.35
15932;BME280;8065;49.520;11.284;2022-08-06T06:40:51;98260.75;;;18.19;78.20
15932;BME280;8065;49.520;11.284;2022-08-06T06:43:22;98257.56;;;18.13;78.41
15932;BME280;8065;49.520;11.284;2022-08-06T06:45:55;98256.94;;;18.20;77.08
15932;BME280;8065;49.520;11.284;2022-08-06T06:48:26;98260.91;;;18.26;77.12
15932;BME280;8065;49.520;11.284;2022-08-06T06:50:59;98274.44;;;18.29;77.74
15932;BME280;8065;49.520;11.284;2022-08-06T06:53:32;98266.38;;;18.29;76.78
15932;BME280;8065;49.520;11.284;2022-08-06T06:56:01;98267.41;;;18.41;76.66
15932;BME280;8065;49.520;11.284;2022-08-06T06:58:33;98272.69;;;18.37;76.69
15932;BME280;8065;49.520;11.284;2022-08-06T07:01:03;98268.59;;;18.43;76.86
15932;BME280;8065;49.520;11.284;2022-08-06T07:03:31;98271.31;;;18.43;75.95
15932;BME280;8065;49.520;11.284;2022-08-06T07:05:59;98281.63;;;18.41;76.46
15932;BME280;8065;49.520;11.284;2022-08-06T07:08:29;98280.06;;;18.56;76.61
15932;BME280;8065;49.520;11.284;2022-08-06T07:10:57;98284.06;;;18.62;75.88
15932;BME280;8065;49.520;11.284;2022-08-06T07:13:25;98280.69;;;18.65;74.45
15932;BME280;8065;49.520;11.284;2022-08-06T07:15:53;98289.78;;;18.76;74.59
15932;BME280;8065;49.520;11.284;2022-08-06T07:18:21;98284.91;;;18.82;73.20
15932;BME280;8065;49.520;11.284;2022-08-06T07:20:52;98282.91;;;18.79;72.82
15932;BME280;8065;49.520;11.284;2022-08-06T07:23:19;98283.06;;;18.86;73.05
15932;BME280;8065;49.520;11.284;2022-08-06T07:25:50;98291.13;;;18.86;72.59
15932;BME280;8065;49.520;11.284;2022-08-06T07:28:19;98295.69;;;19.01;72.65
15932;BME280;8065;49.520;11.284;2022-08-06T07:30:48;98291.13;;;18.86;71.62
15932;BME280;8065;49.520;11.284;2022-08-06T07:33:16;98293.34;;;18.99;69.28
15932;BME280;8065;49.520;11.284;2022-08-06T07:35:45;98292.22;;;19.39;69.90
15932;BME280;8065;49.520;11.284;2022-08-06T07:38:14;98291.03;;;19.56;69.52
15932;BME280;8065;49.520;11.284;2022-08-06T07:40:44;98291.72;;;19.72;69.16
15932;BME280;8065;49.520;11.284;2022-08-06T07:43:16;98289.31;;;19.67;71.13
15932;BME280;8065;49.520;11.284;2022-08-06T07:45:44;98287.88;;;19.73;71.31
15932;BME280;8065;49.520;11.284;2022-08-06T07:48:12;98299.13;;;19.56;67.85
15932;BME280;8065;49.520;11.284;2022-08-06T07:50:42;98298.50;;;19.85;69.87
15932;BME280;8065;49.520;11.284;2022-08-06T07:53:10;98295.31;;;20.03;69.15
15932;BME280;8065;49.520;11.284;2022-08-06T07:55:38;98294.53;;;20.02;68.96
15932;BME280;8065;49.520;11.284;2022-08-06T07:58:06;98297.41;;;20.13;67.93
15932;BME280;8065;49.520;11.284;2022-08-06T08:00:34;98302.75;;;20.09;66.24
15932;BME280;8065;49.520;11.284;2022-08-06T08:03:02;98303.25;;;20.15;67.05
15932;BME280;8065;49.520;11.284;2022-08-06T08:05:48;98308.50;;;20.30;67.31
15932;BME280;8065;49.520;11.284;2022-08-06T08:08:32;98309.84;;;20.40;65.47
15932;BME280;8065;49.520;11.284;2022-08-06T08:11:01;98312.06;;;20.57;65.84
15932;BME280;8065;49.520;11.284;2022-08-06T08:13:28;98310.25;;;20.65;65.82
15932;BME280;8065;49.520;11.284;2022-08-06T08:15:59;98310.34;;;20.72;65.24
15932;BME280;8065;49.520;11.284;2022-08-06T08:18:29;98309.88;;;20.67;63.47
15932;BME280;8065;49.520;11.284;2022-08-06T08:20:57;98315.69;;;20.69;62.81
15932;BME280;8065;49.520;11.284;2022-08-06T08:23:25;98310.56;;;20.60;63.15
15932;BME280;8065;49.520;11.284;2022-08-06T08:25:52;98312.28;;;20.72;62.56
15932;BME280;8065;49.520;11.284;2022-08-06T08:28:20;98302.16;;;20.95;62.70
15932;BME280;8065;49.520;11.284;2022-08-06T08:30:46;98309.94;;;21.00;63.84
15932;BME280;8065;49.520;11.284;2022-08-06T08:33:14;98316.91;;;21.01;63.52
15932;BME280;8065;49.520;11.284;2022-08-06T08:35:41;98315.22;;;21.19;63.25
15932;BME280;8065;49.520;11.284;2022-08-06T08:38:08;98315.00;;;21.32;63.98
15932;BME280;8065;49.520;11.284;2022-08-06T08:40:34;98313.63;;;21.45;62.35
15932;BME280;8065;49.520;11.284;2022-08-06T08:43:02;98314.44;;;21.49;62.17
15932;BME280;8065;49.520;11.284;2022-08-06T08:45:31;98318.47;;;21.62;61.97
15932;BME280;8065;49.520;11.284;2022-08-06T08:47:58;98317.78;;;21.72;62.21
15932;BME280;8065;49.520;11.284;2022-08-06T08:50:29;98313.19;;;21.76;61.88
15932;BME280;8065;49.520;11.284;2022-08-06T08:53:02;98318.00;;;21.93;61.39
15932;BME280;8065;49.520;11.284;2022-08-06T08:55:29;98313.41;;;21.98;62.21
15932;BME280;8065;49.520;11.284;2022-08-06T08:57:56;98320.06;;;22.04;60.80
15932;BME280;8065;49.520;11.284;2022-08-06T09:00:24;98315.94;;;22.17;61.44
15932;BME280;8065;49.520;11.284;2022-08-06T09:02:51;98313.34;;;21.90;60.06
15932;BME280;8065;49.520;11.284;2022-08-06T09:05:18;98311.94;;;22.04;60.70
15932;BME280;8065;49.520;11.284;2022-08-06T09:07:48;98304.25;;;22.09;61.13
15932;BME280;8065;49.520;11.284;2022-08-06T09:10:16;98305.22;;;22.31;61.21
15932;BME280;8065;49.520;11.284;2022-08-06T09:12:42;98302.88;;;22.30;59.19
15932;BME280;8065;49.520;11.284;2022-08-06T09:15:10;98305.19;;;22.28;59.57
15932;BME280;8065;49.520;11.284;2022-08-06T09:17:36;98299.81;;;22.31;61.33
15932;BME280;8065;49.520;11.284;2022-08-06T09:20:04;98304.22;;;22.06;57.86
15932;BME280;8065;49.520;11.284;2022-08-06T09:22:31;98302.50;;;21.90;59.36
15932;BME280;8065;49.520;11.284;2022-08-06T09:24:59;98302.06;;;22.22;59.16
15932;BME280;8065;49.520;11.284;2022-08-06T09:27:32;98301.38;;;22.36;59.11
15932;BME280;8065;49.520;11.284;2022-08-06T09:30:05;98302.69;;;22.60;58.23
15932;BME280;8065;49.520;11.284;2022-08-06T09:32:37;98292.47;;;22.90;58.35
15932;BME280;8065;49.520;11.284;2022-08-06T09:35:15;98293.38;;;23.15;58.62
15932;BME280;8065;49.520;11.284;2022-08-06T09:37:43;98290.34;;;23.31;58.11
15932;BME280;8065;49.520;11.284;2022-08-06T09:40:15;98287.91;;;23.05;58.86
15932;BME280;8065;49.520;11.284;2022-08-06T09:42:43;98292.66;;;23.26;59.37
15932;BME280;8065;49.520;11.284;2022-08-06T09:45:13;98291.91;;;23.46;57.67
15932;BME280;8065;49.520;11.284;2022-08-06T09:47:39;98287.75;;;23.67;57.13
15932;BME280;8065;49.520;11.284;2022-08-06T09:50:07;98285.81;;;23.71;57.25
15932;BME280;8065;49.520;11.284;2022-08-06T09:52:34;98289.66;;;23.59;57.33
15932;BME280;8065;49.520;11.284;2022-08-06T09:55:01;98284.66;;;23.75;55.13
15932;BME280;8065;49.520;11.284;2022-08-06T09:57:42;98288.94;;;23.83;55.13
15932;BME280;8065;49.520;11.284;2022-08-06T10:00:09;98287.41;;;23.82;55.38
15932;BME280;8065;49.520;11.284;2022-08-06T10:02:36;98283.53;;;23.87;55.13
15932;BME280;8065;49.520;11.284;2022-08-06T10:05:07;98285.09;;;24.13;54.09
15932;BME280;8065;49.520;11.284;2022-08-06T10:07:34;98286.25;;;24.05;56.63
15932;BME280;8065;49.520;11.284;2022-08-06T10:10:01;98293.25;;;24.38;55.43
15932;BME280;8065;49.520;11.284;2022-08-06T10:12:29;98289.75;;;24.37;53.65
15932;BME280;8065;49.520;11.284;2022-08-06T10:14:56;98286.66;;;24.14;53.84
15932;BME280;8065;49.520;11.284;2022-08-06T10:17:23;98295.19;;;24.16;54.22
15932;BME280;8065;49.520;11.284;2022-08-06T10:22:27;98292.47;;;24.30;53.75
15932;BME280;8065;49.520;11.284;2022-08-06T10:24:54;98293.63;;;24.15;52.75
15932;BME280;8065;49.520;11.284;2022-08-06T10:27:23;98292.09;;;24.39;53.37
15932;BME280;8065;49.520;11.284;2022-08-06T10:29:54;98290.53;;;24.48;52.14
15932;BME280;8065;49.520;11.284;2022-08-06T10:32:26;98284.31;;;24.51;51.56
15932;BME280;8065;49.520;11.284;2022-08-06T10:34:55;98282.75;;;24.72;52.88
15932;BME280;8065;49.520;11.284;2022-08-06T10:37:23;98285.06;;;24.77;53.96
15932;BME280;8065;49.520;11.284;2022-08-06T10:39:55;98285.81;;;24.88;53.82
15932;BME280;8065;49.520;11.284;2022-08-06T10:42:22;98292.84;;;24.61;52.37
15932;BME280;8065;49.520;11.284;2022-08-06T10:44:50;98282.69;;;25.07;52.01
15932;BME280;8065;49.520;11.284;2022-08-06T10:47:18;98283.00;;;25.16;50.88
15932;BME280;8065;49.520;11.284;2022-08-06T10:49:46;98278.88;;;24.66;50.96
15932;BME280;8065;49.520;11.284;2022-08-06T10:52:13;98271.91;;;24.15;50.85
15932;BME280;8065;49.520;11.284;2022-08-06T10:54:40;98270.34;;;24.49;51.42
15932;BME280;8065;49.520;11.284;2022-08-06T10:57:07;98271.41;;;25.05;51.49
15932;BME280;8065;49.520;11.284;2022-08-06T10:59:37;98270.53;;;25.23;50.69
15932;BME280;8065;49.520;11.284;2022-08-06T11:02:12;98274.28;;;25.54;49.14
15932;BME280;8065;49.520;11.284;2022-08-06T11:04:47;98271.06;;;25.76;48.73
15932;BME280;8065;49.520;11.284;2022-08-06T11:07:45;98271.06;;;25.76;50.24
15932;BME280;8065;49.520;11.284;2022-08-06T11:10:28;98262.16;;;25.69;49.25
15932;BME280;8065;49.520;11.284;2022-08-06T11:13:09;98261.91;;;25.38;47.34
15932;BME280;8065;49.520;11.284;2022-08-06T11:15:40;98258.47;;;25.31;47.84
15932;BME280;8065;49.520;11.284;2022-08-06T11:18:09;98265.97;;;25.82;48.59
15932;BME280;8065;49.520;11.284;2022-08-06T11:20:42;98266.91;;;25.51;47.04
15932;BME280;8065;49.520;11.284;2022-08-06T11:23:24;98261.41;;;25.61;44.90
15932;BME280;8065;49.520;11.284;2022-08-06T11:25:53;98263.25;;;25.82;45.88
15932;BME280;8065;49.520;11.284;2022-08-06T11:28:59;98264.91;;;25.65;47.57
15932;BME280;8065;49.520;11.284;2022-08-06T11:31:30;98261.50;;;25.43;47.18
15932;BME280;8065;49.520;11.284;2022-08-06T11:33:59;98259.16;;;25.49;47.53
15932;BME280;8065;49.520;11.284;2022-08-06T11:36:43;98250.13;;;26.14;48.06
15932;BME280;8065;49.520;11.284;2022-08-06T11:39:09;98254.78;;;26.18;46.40
15932;BME280;8065;49.520;11.284;2022-08-06T11:41:44;98253.50;;;26.36;46.64
15932;BME280;8065;49.520;11.284;2022-08-06T11:44:11;98251.00;;;26.53;46.00
15932;BME280;8065;49.520;11.284;2022-08-06T11:46:41;98250.34;;;26.79;45.45
15932;BME280;8065;49.520;11.284;2022-08-06T11:49:33;98242.78;;;26.90;44.08
15932;BME280;8065;49.520;11.284;2022-08-06T11:52:02;98240.50;;;26.03;43.61
15932;BME280;8065;49.520;11.284;2022-08-06T11:54:30;98248.56;;;26.17;44.27
15932;BME280;8065;49.520;11.284;2022-08-06T12:00:06;98244.41;;;26.50;46.31
15932;BME280;8065;49.520;11.284;2022-08-06T12:02:59;98242.13;;;26.45;44.99
15932;BME280;8065;49.520;11.284;2022-08-06T12:05:38;98242.59;;;26.36;43.97
15932;BME280;8065;49.520;11.284;2022-08-06T12:08:18;98236.28;;;25.98;45.64
15932;BME280;8065;49.520;11.284;2022-08-06T12:13:49;98230.16;;;25.87;43.73
15932;BME280;8065;49.520;11.284;2022-08-06T12:16:27;98232.91;;;26.28;43.57
15932;BME280;8065;49.520;11.284;2022-08-06T12:18:53;98227.44;;;26.32;44.11
15932;BME280;8065;49.520;11.284;2022-08-06T12:21:21;98228.19;;;26.36;44.54
15932;BME280;8065;49.520;11.284;2022-08-06T12:23:50;98227.34;;;26.42;45.24
15932;BME280;8065;49.520;11.284;2022-08-06T12:26:18;98227.69;;;26.82;46.53
15932;BME280;8065;49.520;11.284;2022-08-06T12:28:45;98220.22;;;27.20;45.22
15932;BME280;8065;49.520;11.284;2022-08-06T12:31:12;98217.69;;;26.72;44.75
15932;BME280;8065;49.520;11.284;2022-08-06T12:33:40;98216.84;;;26.78;44.95
15932;BME280;8065;49.520;11.284;2022-08-06T12:36:08;98212.97;;;26.76;43.47
15932;BME280;8065;49.520;11.284;2022-08-06T12:38:35;98215.84;;;26.62;44.70
15932;BME280;8065;49.520;11.284;2022-08-06T12:41:05;98219.53;;;27.13;44.15
15932;BME280;8065;49.520;11.284;2022-08-06T12:43:33;98216.28;;;26.91;43.37
15932;BME280;8065;49.520;11.284;2022-08-06T12:46:02;98219.31;;;26.66;44.01
15932;BME280;8065;49.520;11.284;2022-08-06T12:48:29;98208.63;;;27.13;44.37
15932;BME280;8065;49.520;11.284;2022-08-06T12:51:04;98205.19;;;26.74;43.11
15932;BME280;8065;49.520;11.284;2022-08-06T12:53:31;98209.56;;;26.99;43.47
15932;BME280;8065;49.520;11.284;2022-08-06T12:55:58;98208.59;;;26.82;43.06
15932;BME280;8065;49.520;11.284;2022-08-06T12:58:30;98196.78;;;27.23;43.62
15932;BME280;8065;49.520;11.284;2022-08-06T13:00:59;98196.41;;;27.51;42.94
15932;BME280;8065;49.520;11.284;2022-08-06T13:03:27;98195.34;;;27.15;43.96
15932;BME280;8065;49.520;11.284;2022-08-06T13:05:58;98195.59;;;26.93;43.37
15932;BME280;8065;49.520;11.284;2022-08-06T13:08:25;98190.41;;;27.33;44.52
15932;BME280;8065;49.520;11.284;2022-08-06T13:10:54;98196.22;;;27.65;44.11
15932;BME280;8065;49.520;11.284;2022-08-06T13:13:37;98192.41;;;27.83;43.98
15932;BME280;8065;49.520;11.284;2022-08-06T13:16:08;98184.09;;;27.90;43.87
15932;BME280;8065;49.520;11.284;2022-08-06T13:18:36;98180.72;;;27.55;44.39
15932;BME280;8065;49.520;11.284;2022-08-06T13:21:04;98174.41;;;27.62;43.62
15932;BME280;8065;49.520;11.284;2022-08-06T13:23:45;98176.53;;;27.97;43.08
15932;BME280;8065;49.520;11.284;2022-08-06T13:26:13;98177.22;;;27.55;41.69
15932;BME280;8065;49.520;11.284;2022-08-06T13:29:02;98174.22;;;27.19;41.61